Terminal Aerodrome Forecast
Issued by NWS

Current Version | Previous Version | Text Only | Print | Product List | Glossary On
Versions: 1 2 3 4 5 6 7 8 9 10 11 12 13 14 15 16
000
FTUS46 KOTX 270523
TAFCOE
TAF
KCOE 270523Z 2706/2806 21005KT P6SM -RA OVC020
     FM270700 15006KT 6SM -RA BR OVC017
     FM271200 20006KT P6SM -SHRA BKN011 OVC030
     FM271500 20007G11KT P6SM -SHRA SCT012 BKN025
     FM272100 20010G14KT P6SM -SHRA BKN025 BKN090
     FM280300 16006KT P6SM BKN060 BKN120 BKN200=

USA.gov is the U.S. government's official web portal to all federal, state and local government web resources and services.